createdAt,value
2023-06-19T00:02:25.154Z,64
2023-06-19T00:07:33.104Z,64
2023-06-19T00:12:41.033Z,64
2023-06-19T00:17:47.241Z,64
2023-06-19T00:22:53.388Z,65
2023-06-19T00:28:01.338Z,65
2023-06-19T00:33:07.482Z,65
2023-06-19T00:38:13.665Z,66
2023-06-19T00:43:21.647Z,66
2023-06-19T00:48:27.777Z,66
2023-06-19T00:53:35.828Z,66
2023-06-19T00:58:41.902Z,66
2023-06-19T01:03:48.304Z,67
2023-06-19T01:08:56.007Z,68
2023-06-19T01:14:03.972Z,68
2023-06-19T01:19:11.901Z,69
2023-06-19T01:24:18.150Z,70
2023-06-19T01:34:33.978Z,70
2023-06-19T01:39:41.937Z,71
2023-06-19T01:49:56.020Z,72
2023-06-19T01:55:02.224Z,72
2023-06-19T02:00:10.156Z,72
2023-06-19T02:05:18.120Z,72
2023-06-19T02:10:24.435Z,73
2023-06-19T02:15:30.446Z,73
2023-06-19T02:20:36.595Z,72
2023-06-19T02:25:44.523Z,71
2023-06-19T02:30:50.714Z,72
2023-06-19T02:35:58.651Z,71
2023-06-19T02:41:04.817Z,72
2023-06-19T02:46:13.606Z,72
2023-06-19T02:51:20.698Z,72
2023-06-19T03:01:36.657Z,72
2023-06-19T03:06:42.754Z,71
2023-06-19T03:11:50.731Z,71
2023-06-19T03:16:58.683Z,71
2023-06-19T03:22:04.867Z,70
2023-06-19T03:27:12.774Z,71
2023-06-19T03:32:18.969Z,71
2023-06-19T03:37:26.927Z,71
2023-06-19T03:42:34.857Z,72
2023-06-19T03:47:42.822Z,72
2023-06-19T03:52:48.968Z,73
2023-06-19T03:57:55.153Z,73
2023-06-19T04:03:01.497Z,73
2023-06-19T04:08:07.459Z,73
2023-06-19T04:13:13.652Z,74
2023-06-19T04:18:19.796Z,75
2023-06-19T04:23:27.705Z,75
2023-06-19T04:28:35.702Z,76
2023-06-19T04:33:41.913Z,76
2023-06-19T04:38:48.042Z,77
2023-06-19T04:43:56.360Z,77
2023-06-19T04:49:03.918Z,77
2023-06-19T04:54:10.107Z,78
2023-06-19T05:04:24.217Z,79
2023-06-19T05:09:32.193Z,79
2023-06-19T05:19:44.489Z,78
2023-06-19T05:24:52.466Z,78
2023-06-19T05:30:00.456Z,77
2023-06-19T05:35:06.591Z,78
2023-06-19T05:40:14.517Z,78
2023-06-19T05:45:20.694Z,77
2023-06-19T05:50:28.654Z,77
2023-06-19T05:55:34.862Z,77
2023-06-19T06:00:42.764Z,78
2023-06-19T06:05:48.908Z,77
2023-06-19T06:10:55.105Z,77
2023-06-19T06:16:01.251Z,77
2023-06-19T06:21:07.405Z,76
2023-06-19T06:26:15.387Z,76
2023-06-19T06:31:23.330Z,75
2023-06-19T06:41:37.472Z,74
2023-06-19T06:46:43.603Z,75
2023-06-19T06:51:51.540Z,74
2023-06-19T06:56:57.968Z,74
2023-06-19T07:02:03.948Z,75
2023-06-19T07:07:11.826Z,74
2023-06-19T07:12:18.015Z,74
2023-06-19T07:17:26.057Z,72
2023-06-19T07:22:32.118Z,73
2023-06-19T07:27:38.267Z,72
2023-06-19T07:32:44.442Z,72
2023-06-19T07:37:52.404Z,71
2023-06-19T07:42:58.566Z,72
2023-06-19T07:48:06.598Z,71
2023-06-19T07:53:14.535Z,72
2023-06-19T07:58:22.402Z,71
2023-06-19T08:03:30.485Z,71
2023-06-19T08:08:36.526Z,71
2023-06-19T08:13:42.714Z,70
2023-06-19T08:18:50.626Z,70
2023-06-19T08:23:58.640Z,71
2023-06-19T08:29:04.750Z,70
2023-06-19T08:34:12.711Z,70
2023-06-19T08:39:20.642Z,70
2023-06-19T08:44:26.834Z,69
2023-06-19T08:49:34.770Z,69
2023-06-19T08:54:40.925Z,69
2023-06-19T08:59:47.120Z,69
2023-06-19T09:04:53.298Z,69
2023-06-19T09:09:59.469Z,69
2023-06-19T09:15:07.441Z,68
2023-06-19T09:20:15.345Z,67
2023-06-19T09:25:21.488Z,68
2023-06-19T09:30:27.668Z,68
2023-06-19T09:35:35.557Z,67
2023-06-19T09:40:43.584Z,66
2023-06-19T09:45:51.537Z,66
2023-06-19T09:50:57.674Z,65
2023-06-19T09:56:05.640Z,65
2023-06-19T10:01:13.576Z,64
2023-06-19T10:06:19.770Z,65
2023-06-19T10:11:27.711Z,64
2023-06-19T10:16:33.918Z,64
2023-06-19T10:21:41.803Z,64
2023-06-19T10:26:49.757Z,64
2023-06-19T10:31:55.949Z,64
2023-06-19T10:37:02.133Z,63
2023-06-19T10:47:16.241Z,63
2023-06-19T10:52:22.390Z,64
2023-06-19T10:57:30.317Z,64
2023-06-19T11:02:36.536Z,63
2023-06-19T11:07:44.467Z,62
2023-06-19T11:12:52.385Z,61
2023-06-19T11:23:08.300Z,60
2023-06-19T11:28:14.453Z,59
2023-06-19T11:33:22.392Z,58
2023-06-19T11:38:30.368Z,57
2023-06-19T11:43:36.515Z,55
2023-06-19T11:48:53.256Z,55
2023-06-19T11:53:50.634Z,54
2023-06-19T11:58:56.825Z,54
2023-06-19T12:04:03.257Z,53
2023-06-19T12:09:10.892Z,52
2023-06-19T12:14:17.161Z,52
2023-06-19T12:19:23.232Z,52
2023-06-19T12:24:29.469Z,52
2023-06-19T12:29:37.351Z,52
2023-06-19T12:34:45.310Z,52
2023-06-19T12:39:53.224Z,51
2023-06-19T12:50:09.167Z,51
2023-06-19T12:55:15.334Z,51
2023-06-19T13:00:21.562Z,50
2023-06-19T13:05:27.653Z,49
2023-06-19T13:10:35.576Z,49
2023-06-19T13:15:41.765Z,48
2023-06-19T13:20:49.687Z,47
2023-06-19T13:25:57.674Z,47
2023-06-19T13:31:05.597Z,46
2023-06-19T13:36:11.759Z,46
2023-06-19T13:41:19.710Z,45
2023-06-19T13:46:27.677Z,44
2023-06-19T13:51:33.832Z,44
2023-06-19T13:56:41.776Z,44
2023-06-19T14:01:49.724Z,44
2023-06-19T14:06:57.643Z,43
2023-06-19T14:12:05.602Z,43
2023-06-19T14:17:11.872Z,42
2023-06-19T14:22:19.718Z,42
2023-06-19T14:27:27.691Z,41
2023-06-19T14:32:33.878Z,41
2023-06-19T14:37:41.857Z,42
2023-06-19T14:42:49.759Z,43
2023-06-19T14:47:55.960Z,44
2023-06-19T14:53:02.080Z,44
2023-06-19T14:58:08.237Z,45
2023-06-19T15:03:16.345Z,46
2023-06-19T15:08:22.355Z,47
2023-06-19T15:13:30.292Z,46
2023-06-19T15:18:38.277Z,46
2023-06-19T15:23:44.433Z,46
2023-06-19T15:28:52.363Z,46
2023-06-19T15:34:00.334Z,45
2023-06-19T15:39:06.471Z,44
2023-06-19T15:44:14.389Z,43
2023-06-19T15:49:22.347Z,43
2023-06-19T15:54:28.535Z,43
2023-06-19T16:04:42.640Z,42
2023-06-19T16:09:55.473Z,41
2023-06-19T16:20:06.464Z,41
2023-06-19T16:25:14.423Z,40
2023-06-19T16:30:20.592Z,40
2023-06-19T16:35:28.543Z,39
2023-06-19T16:40:34.702Z,39
2023-06-19T16:45:40.863Z,39
2023-06-19T16:50:48.838Z,39
2023-06-19T16:55:54.993Z,38
2023-06-19T17:01:01.201Z,38
2023-06-19T17:06:09.113Z,38
2023-06-19T17:11:20.586Z,38
2023-06-19T17:16:21.476Z,39
2023-06-19T17:21:27.590Z,38
2023-06-19T17:26:33.761Z,39
2023-06-19T17:31:39.919Z,40
2023-06-19T17:36:47.870Z,40
2023-06-19T17:41:55.798Z,40
2023-06-19T17:47:01.949Z,41
2023-06-19T17:52:09.949Z,41
2023-06-19T17:57:17.878Z,42
2023-06-19T18:02:24.193Z,42
2023-06-19T18:07:31.980Z,43
2023-06-19T18:12:39.984Z,43
2023-06-19T18:17:46.174Z,43
2023-06-19T18:22:54.086Z,44
2023-06-19T18:28:02.010Z,44
2023-06-19T18:33:08.215Z,44
2023-06-19T18:38:16.167Z,45
2023-06-19T18:43:24.112Z,45
2023-06-19T18:48:32.040Z,46
2023-06-19T18:53:38.182Z,46
2023-06-19T18:58:46.141Z,46
2023-06-19T19:03:52.357Z,47
2023-06-19T19:14:06.413Z,47
2023-06-19T19:19:12.586Z,47
2023-06-19T19:24:23.020Z,47
2023-06-19T19:29:26.718Z,47
2023-06-19T19:34:32.869Z,48
2023-06-19T19:39:39.038Z,48
2023-06-19T19:44:45.189Z,48
2023-06-19T19:49:51.326Z,48
2023-06-19T19:54:57.537Z,48
2023-06-19T20:05:11.616Z,49
2023-06-19T20:10:19.565Z,50
2023-06-19T20:15:25.742Z,50
2023-06-19T20:20:33.700Z,50
2023-06-19T20:25:41.634Z,51
2023-06-19T20:30:49.612Z,51
2023-06-19T20:35:55.699Z,51
2023-06-19T20:41:03.706Z,52
2023-06-19T20:46:09.872Z,52
2023-06-19T20:51:16.062Z,53
2023-06-19T20:56:23.971Z,53
2023-06-19T21:01:30.266Z,53
2023-06-19T21:06:38.120Z,54
2023-06-19T21:11:46.050Z,54
2023-06-19T21:16:52.253Z,54
2023-06-19T21:22:00.153Z,55
2023-06-19T21:27:06.334Z,55
2023-06-19T21:32:14.280Z,55
2023-06-19T21:37:20.444Z,56
2023-06-19T21:42:26.636Z,56
2023-06-19T21:47:32.791Z,56
2023-06-19T21:52:40.721Z,57
2023-06-19T21:57:58.479Z,57
2023-06-19T22:02:54.978Z,58
2023-06-19T22:08:02.782Z,58
2023-06-19T22:13:08.975Z,58
2023-06-19T22:18:16.901Z,58
2023-06-19T22:23:24.868Z,58
2023-06-19T22:28:31.012Z,59
2023-06-19T22:33:38.975Z,59
2023-06-19T22:38:46.859Z,59
2023-06-19T22:43:53.081Z,59
2023-06-19T22:49:01.063Z,60
2023-06-19T22:54:08.973Z,60
2023-06-19T22:59:16.946Z,60
2023-06-19T23:04:23.100Z,60
2023-06-19T23:09:29.262Z,60
2023-06-19T23:14:35.381Z,60
2023-06-19T23:19:41.585Z,61
2023-06-19T23:24:47.778Z,61
2023-06-19T23:35:03.654Z,61
2023-06-19T23:40:11.644Z,61
2023-06-19T23:45:17.777Z,61
2023-06-19T23:50:25.725Z,61
2023-06-19T23:55:31.895Z,61
